This is the latest recevied weather packets stored in our database for station/object DG3GAI-6. If no packets are shown the sender has not sent any weather packets the latest 10 day(s).
| Time | Temp. | Humidity | Pressure | Rain* | Wind** | Luminosity | Snow |
|---|---|---|---|---|---|---|---|
| 1778030272 | 10.56° C | 78% | 1012 hPa | - | - | - | - |
| 1778028465 | 10.56° C | 77% | 1012 hPa | - | - | - | - |
| 1778026658 | 11.11° C | 77% | 1012 hPa | - | - | - | - |
| 1778024850 | 11.11° C | 78% | 1013 hPa | - | - | - | - |
| 1778023043 | 11.11° C | 80% | 1013 hPa | - | - | - | - |
| 1778021236 | 11.67° C | 78% | 1013 hPa | - | - | - | - |
| 1778019429 | 11.67° C | 79% | 1013 hPa | - | - | - | - |
| 1778017621 | 11.67° C | 79% | 1013 hPa | - | - | - | - |
| 1778015814 | 12.22° C | 81% | 1013 hPa | - | - | - | - |
| 1778014007 | 12.22° C | 81% | 1013 hPa | - | - | - | - |
| 1778012200 | 12.78° C | 83% | 1013 hPa | - | - | - | - |
| 1778010392 | 12.78° C | 86% | 1013 hPa | - | - | - | - |
| 1778008585 | 13.33° C | 86% | 1012 hPa | - | - | - | - |
| 1778006778 | 13.33° C | 84% | 1013 hPa | - | - | - | - |
| 1778004970 | 13.89° C | 83% | 1012 hPa | - | - | - | - |
| 1778003163 | 13.89° C | 82% | 1012 hPa | - | - | - | - |
| 1778001356 | 13.89° C | 83% | 1012 hPa | - | - | - | - |
| 1777999548 | 13.89° C | 86% | 1012 hPa | - | - | - | - |
| 1777997741 | 13.33° C | 87% | 1012 hPa | - | - | - | - |
| 1777995934 | 13.33° C | 85% | 1012 hPa | - | - | - | - |
| 1777994127 | 13.89° C | 79% | 1012 hPa | - | - | - | - |
| 1777992319 | 14.44° C | 78% | 1012 hPa | - | - | - | - |
| 1777990512 | 13.89° C | 82% | 1012 hPa | - | - | - | - |
| 1777988705 | 13.89° C | 84% | 1012 hPa | - | - | - | - |
| 1777986897 | 13.33° C | 89% | 1012 hPa | - | - | - | - |
* Rain since midnight (hover to see other rain measurements)
** Current wind speed in m/s (hover to see current wind gust speed)